Time;durP1;ratioP1;P1;durP2;ratioP2;P2;SDS_P1;SDS_P2;PMS_P1;PMS_P2;Temp;Humidity;BMP_temperature;BMP_pressure;BME280_temperature;BME280_humidity;BME280_pressure;Samples;Min_cycle;Max_cycle;Signal;HPM_P1;HPM_P2
2023/05/02 00:00:54;;;;;;;5.15;2.40;;;;;;;27.12;29.95;101793.63;4131105;28;19922;-68
2023/05/02 00:02:55;;;;;;;;;;;;;;;27.14;30.23;101797.03;4132462;28;20046;-68
2023/05/02 00:04:57;;;;;;;5.15;2.20;;;;;;;27.12;30.41;101790.09;4131739;28;19922;-68
2023/05/02 00:07:00;;;;;;;;;;;;;;;27.14;30.04;101788.94;4132261;28;20046;-68
2023/05/02 00:09:02;;;;;;;5.70;2.40;;;;;;;27.14;30.10;101797.03;4131056;28;19922;-68
2023/05/02 00:11:04;;;;;;;5.25;2.67;;;;;;;27.16;30.23;101789.69;4131434;28;20121;-70
2023/05/02 00:13:06;;;;;;;5.75;2.22;;;;;;;27.15;29.94;101795.22;4131806;28;20058;-70
2023/05/02 00:15:08;;;;;;;;;;;;;;;27.14;29.89;101783.53;4131700;28;20089;-68
2023/05/02 00:17:16;;;;;;;4.78;2.03;;;;;;;27.14;29.93;101780.00;4131600;28;19922;-68
2023/05/02 00:19:17;;;;;;;4.22;1.90;;;;;;;27.14;30.24;101782.72;4130732;28;20042;-68
2023/05/02 00:21:19;;;;;;;;;;;;;;;27.10;30.29;101774.88;4131354;28;20075;-67
2023/05/02 00:23:21;;;;;;;5.18;2.13;;;;;;;27.10;30.43;101790.22;4131119;28;20435;-68
2023/05/02 00:25:22;;;;;;;;;;;;;;;26.98;30.38;101764.34;4131942;28;20116;-68
2023/05/02 00:27:24;;;;;;;4.80;2.00;;;;;;;27.09;30.06;101789.34;4130296;28;19928;-68
2023/05/02 00:29:26;;;;;;;3.72;1.85;;;;;;;27.13;30.25;101781.84;4130356;28;20161;-68
2023/05/02 00:31:27;;;;;;;5.68;2.20;;;;;;;27.15;29.79;101774.47;4131155;28;20133;-68
2023/05/02 00:33:29;;;;;;;;;;;;;;;27.14;30.06;101774.59;4131903;28;20696;-67
2023/05/02 00:35:32;;;;;;;5.00;2.08;;;;;;;27.08;30.14;101770.59;4131533;28;19921;-68
2023/05/02 00:37:34;;;;;;;4.32;1.80;;;;;;;27.14;29.95;101771.91;4131195;28;20523;-68
2023/05/02 00:39:36;;;;;;;5.88;2.08;;;;;;;27.16;29.97;101776.16;4130527;28;20078;-68
2023/05/02 00:41:38;;;;;;;;;;;;;;;27.12;29.94;101777.41;4131695;28;20046;-69
2023/05/02 00:43:39;;;;;;;4.30;1.98;;;;;;;27.10;30.05;101763.22;4130964;28;20414;-69
2023/05/02 00:45:43;;;;;;;4.47;1.90;;;;;;;27.13;29.89;101770.19;4131294;28;20049;-68
2023/05/02 00:47:44;;;;;;;4.50;1.83;;;;;;;27.13;29.93;101768.34;4131162;28;20108;-68
2023/05/02 00:49:47;;;;;;;;;;;;;;;27.12;29.93;101769.31;4130557;28;20547;-68
2023/05/02 00:51:48;;;;;;;4.10;1.73;;;;;;;27.08;30.25;101774.13;4130966;28;19922;-68
2023/05/02 00:53:51;;;;;;;4.35;1.88;;;;;;;27.11;30.24;101773.03;4131165;28;20101;-68
2023/05/02 00:55:53;;;;;;;4.57;1.90;;;;;;;27.12;30.17;101772.03;4131154;28;20130;-68
2023/05/02 00:57:55;;;;;;;4.50;2.08;;;;;;;27.13;29.87;101781.00;4130877;28;20050;-69
2023/05/02 00:59:57;;;;;;;4.50;1.70;;;;;;;27.15;29.97;101779.03;4130075;28;20190;-68
2023/05/02 01:02:17;;;;;;;4.25;1.90;;;;;;;27.16;30.06;101773.47;4130818;28;20050;-69
2023/05/02 01:04:29;;;;;;;4.03;1.75;;;;;;;27.12;30.33;101780.13;4130824;28;20143;-69
2023/05/02 01:06:42;;;;;;;3.45;1.63;;;;;;;27.14;29.93;101774.59;4130927;28;20050;-68
2023/05/02 01:09:05;;;;;;;4.95;1.92;;;;;;;27.13;30.28;101776.44;4130772;28;20101;-68
2023/05/02 01:11:15;;;;;;;3.67;2.00;;;;;;;27.10;30.14;101774.88;4130022;28;20057;-68
2023/05/02 01:13:25;;;;;;;4.22;1.60;;;;;;;27.10;30.20;101779.44;4130435;28;20468;-68
2023/05/02 01:15:27;;;;;;;5.53;2.10;;;;;;;27.10;29.95;101780.25;4130856;28;20495;-68
2023/05/02 01:17:31;;;;;;;3.92;1.67;;;;;;;27.12;30.22;101779.28;4130645;28;20048;-68
2023/05/02 01:19:42;;;;;;;4.35;1.80;;;;;;;27.14;30.01;101783.53;4129818;28;20236;-69
2023/05/02 01:21:44;;;;;;;4.57;1.98;;;;;;;27.10;30.26;101782.13;4130638;28;20338;-68
2023/05/02 01:24:04;;;;;;;4.20;1.80;;;;;;;27.12;29.82;101784.69;4130783;28;20133;-68
2023/05/02 01:26:31;;;;;;;4.63;1.73;;;;;;;27.14;29.95;101780.00;4130416;28;20076;-69
2023/05/02 01:28:59;;;;;;;3.35;1.70;;;;;;;27.12;29.94;101785.53;4130593;28;20054;-68
2023/05/02 01:31:03;;;;;;;4.55;1.67;;;;;;;27.10;30.28;101782.13;4129853;28;20488;-69
2023/05/02 01:33:07;;;;;;;4.50;1.80;;;;;;;27.13;29.98;101784.53;4132624;28;20438;-69
2023/05/02 01:35:10;;;;;;;4.07;1.90;;;;;;;27.12;30.05;101787.38;4135990;28;20046;-69
2023/05/02 01:37:13;;;;;;;4.47;1.90;;;;;;;27.06;30.32;101772.56;4136136;28;20129;-69
2023/05/02 01:39:19;;;;;;;3.45;1.60;;;;;;;27.13;30.13;101789.94;4135717;28;20128;-69
2023/05/02 01:41:25;;;;;;;3.90;1.77;;;;;;;27.10;30.24;101785.66;4135582;28;20053;-69
2023/05/02 01:43:27;;;;;;;4.22;1.83;;;;;;;27.10;29.78;101793.78;4135991;28;20050;-69
2023/05/02 01:45:31;;;;;;;3.17;1.65;;;;;;;27.07;30.02;101794.06;4135885;28;20042;-69
2023/05/02 01:47:35;;;;;;;3.47;1.60;;;;;;;27.06;30.03;101783.38;4135968;28;20122;-69
2023/05/02 01:49:38;;;;;;;4.47;1.67;;;;;;;27.10;29.94;101791.06;4135294;28;20252;-68
2023/05/02 01:51:48;;;;;;;4.00;1.80;;;;;;;27.10;30.01;101790.22;4135692;28;20097;-69
2023/05/02 01:53:50;;;;;;;3.88;1.80;;;;;;;27.09;30.19;101791.22;4136103;28;20500;-69
2023/05/02 01:55:53;;;;;;;3.90;1.70;;;;;;;27.05;29.85;101787.94;4135507;28;20050;-69
2023/05/02 01:57:56;;;;;;;4.72;1.90;;;;;;;27.08;30.05;101790.34;4118673;28;20473;-69
2023/05/02 01:59:59;;;;;;;3.83;1.60;;;;;;;27.08;30.18;101790.34;4135008;28;20101;-69
2023/05/02 02:02:03;;;;;;;4.25;1.80;;;;;;;27.09;30.23;101788.50;4135861;28;20049;-69
2023/05/02 02:04:08;;;;;;;3.90;1.88;;;;;;;27.04;29.83;101779.97;4118881;28;20054;-68
2023/05/02 02:06:10;;;;;;;4.38;1.98;;;;;;;27.07;30.26;101782.38;4136000;28;20050;-69
2023/05/02 02:08:15;;;;;;;5.30;1.80;;;;;;;27.06;30.10;101780.66;4136138;28;20467;-69
2023/05/02 02:10:17;;;;;;;4.88;1.90;;;;;;;27.05;29.91;101785.22;4134639;28;20058;-68
2023/05/02 02:12:21;;;;;;;3.28;1.67;;;;;;;27.04;29.92;101780.81;4135559;28;20067;-69
2023/05/02 02:14:27;;;;;;;3.53;1.50;;;;;;;27.03;30.15;101781.81;4135704;28;20173;-68
2023/05/02 02:16:31;;;;;;;3.13;1.55;;;;;;;27.05;30.10;101779.84;4135791;28;20508;-68
2023/05/02 02:18:37;;;;;;;4.43;1.70;;;;;;;27.03;29.98;101783.66;4135675;28;20460;-68
2023/05/02 02:20:43;;;;;;;4.18;1.90;;;;;;;27.03;29.81;101787.22;4134936;28;20474;-68
2023/05/02 02:22:46;;;;;;;4.13;1.75;;;;;;;27.04;30.02;101788.06;4135503;28;20054;-69
2023/05/02 02:24:50;;;;;;;4.38;1.80;;;;;;;27.04;30.09;101797.03;4135323;28;20053;-68
2023/05/02 02:26:54;;;;;;;4.80;1.58;;;;;;;27.02;29.78;101798.16;4135505;28;20077;-69
2023/05/02 02:28:56;;;;;;;3.97;2.00;;;;;;;27.02;29.86;101804.38;4135630;28;20054;-68
2023/05/02 02:30:58;;;;;;;4.18;1.70;;;;;;;27.02;29.79;101798.16;4134543;28;20101;-68
2023/05/02 02:33:00;;;;;;;3.35;1.70;;;;;;;27.03;29.73;101802.56;4118188;28;20050;-69
2023/05/02 02:35:03;;;;;;;4.75;1.73;;;;;;;27.03;30.12;101799.88;4135542;28;20161;-68
2023/05/02 02:37:15;;;;;;;4.47;1.73;;;;;;;27.06;29.97;101796.88;4135816;28;20125;-67
2023/05/02 02:40:01;;;;;;;3.10;1.70;;;;;;;27.08;29.70;101801.13;4135441;28;20042;-68
2023/05/02 02:42:22;;;;;;;4.28;1.58;;;;;;;26.99;30.19;101796.59;4069938;29;20048;-69
2023/05/02 02:44:53;;;;;;;4.43;1.67;;;;;;;27.04;29.98;101813.22;4053243;29;20049;-69
2023/05/02 02:47:40;;;;;;;5.18;1.77;;;;;;;27.02;30.03;101812.50;4050184;29;20079;-69
2023/05/02 02:49:50;;;;;;;4.30;1.77;;;;;;;26.99;30.18;101811.91;4066427;29;20043;-69
2023/05/02 02:52:04;;;;;;;2.92;1.70;;;;;;;27.00;30.10;101822.59;4067220;29;20144;-69
2023/05/02 02:54:19;;;;;;;4.00;1.83;;;;;;;26.99;30.15;101820.88;4066977;29;20075;-68
2023/05/02 02:56:38;;;;;;;3.83;1.90;;;;;;;27.01;29.69;101812.63;4067385;29;20123;-69
2023/05/02 02:58:54;;;;;;;4.85;1.92;;;;;;;27.01;29.78;101815.34;4067343;29;20058;-69
2023/05/02 03:00:58;;;;;;;3.42;1.50;;;;;;;27.00;29.87;101822.59;4066328;29;20082;-69
2023/05/02 03:03:00;;;;;;;3.05;1.58;;;;;;;27.01;29.91;101820.75;4067266;29;20127;-69
2023/05/02 03:05:04;;;;;;;4.07;1.70;;;;;;;27.00;30.08;101816.31;4067397;29;20474;-69
2023/05/02 03:07:06;;;;;;;3.92;1.70;;;;;;;27.00;29.87;101810.91;4067219;29;20056;-69
2023/05/02 03:09:17;;;;;;;3.85;1.70;;;;;;;27.01;29.97;101816.22;4066691;29;20079;-69
2023/05/02 03:11:19;;;;;;;3.10;1.60;;;;;;;26.99;29.99;101806.50;4066335;29;20128;-69
2023/05/02 03:13:21;;;;;;;4.40;1.77;;;;;;;26.95;29.87;101808.63;4111920;28;20133;-69
2023/05/02 03:15:47;;;;;;;4.93;2.03;;;;;;;27.03;29.84;101814.22;4132560;28;20042;-69
2023/05/02 03:17:48;;;;;;;3.47;1.73;;;;;;;26.98;29.70;101811.06;4132581;28;20093;-69
2023/05/02 03:19:50;;;;;;;4.18;1.80;;;;;;;26.99;29.59;101807.38;4131608;28;20039;-69
2023/05/02 03:21:52;;;;;;;;;;;;;;;26.96;30.09;101814.91;4132389;28;20129;-68
2023/05/02 03:23:53;;;;;;;4.07;1.70;;;;;;;26.87;30.27;101816.56;4132575;28;20383;-69
2023/05/02 03:25:55;;;;;;;;;;;;;;;26.93;29.96;101821.44;4132632;28;20042;-68
2023/05/02 03:27:57;;;;;;;3.47;1.67;;;;;;;26.92;29.96;101825.94;4132454;28;19922;-69
2023/05/02 03:29:59;;;;;;;3.88;1.80;;;;;;;26.95;29.80;101827.53;4131675;28;20687;-69
2023/05/02 03:32:01;;;;;;;3.80;1.90;;;;;;;26.94;29.77;101826.69;4132431;28;20112;-69
2023/05/02 03:34:03;;;;;;;3.90;1.85;;;;;;;26.92;30.33;101817.84;4132225;28;20057;-69
2023/05/02 03:36:06;;;;;;;3.72;1.77;;;;;;;26.93;30.08;101814.16;4132229;28;20451;-69
2023/05/02 03:38:07;;;;;;;4.00;1.60;;;;;;;26.96;29.71;101823.00;4131743;28;20139;-69
2023/05/02 03:40:09;;;;;;;4.20;1.88;;;;;;;26.96;30.10;101829.22;4131261;28;20122;-69
2023/05/02 03:42:11;;;;;;;4.40;1.88;;;;;;;26.94;29.62;101829.38;4132085;28;20073;-69
2023/05/02 03:44:13;;;;;;;;;;;;;;;26.94;29.93;101833.94;4132694;28;20053;-69
2023/05/02 03:46:14;;;;;;;3.92;2.00;;;;;;;26.91;30.01;101834.19;4132159;28;19922;-69
2023/05/02 03:48:16;;;;;;;;;;;;;;;26.90;30.05;101830.66;4132362;28;20050;-69
2023/05/02 03:50:18;;;;;;;4.90;1.98;;;;;;;26.88;30.15;101826.34;4131077;28;19926;-69
2023/05/02 03:52:19;;;;;;;4.80;2.10;;;;;;;26.93;30.00;101826.81;4132050;28;20042;-69
2023/05/02 03:54:21;;;;;;;;;;;;;;;26.90;29.70;101835.19;4132566;28;20046;-69
2023/05/02 03:56:23;;;;;;;3.40;1.48;;;;;;;26.88;30.04;101834.44;4131136;28;19939;-70
2023/05/02 03:58:25;;;;;;;4.15;1.88;;;;;;;26.91;29.97;101837.72;4131977;28;20046;-69
2023/05/02 04:00:27;;;;;;;4.28;1.90;;;;;;;26.92;29.72;101827.81;4130981;28;20435;-69
2023/05/02 04:02:29;;;;;;;4.43;1.88;;;;;;;26.95;29.80;101838.31;4131920;28;20469;-69
2023/05/02 04:04:31;;;;;;;4.07;1.88;;;;;;;26.92;29.67;101825.94;4132147;28;20047;-69
2023/05/02 04:06:33;;;;;;;4.05;1.85;;;;;;;26.93;30.01;101835.75;4114345;28;20046;-69
2023/05/02 04:08:35;;;;;;;4.40;2.08;;;;;;;26.92;29.90;101833.22;4114487;28;20054;-69
2023/05/02 04:10:37;;;;;;;5.00;2.38;;;;;;;26.91;29.90;101832.34;4130701;28;20065;-69
2023/05/02 04:12:39;;;;;;;4.00;1.83;;;;;;;26.93;30.04;101834.91;4131752;28;20133;-69
2023/05/02 04:14:40;;;;;;;3.30;1.80;;;;;;;26.91;29.63;101821.53;4131781;28;20050;-69
2023/05/02 04:16:46;;;;;;;;;;;;;;;26.89;29.65;101825.38;4131977;28;20118;-68
2023/05/02 04:18:48;;;;;;;4.55;1.90;;;;;;;26.82;29.76;101819.66;4131620;28;20436;-69
2023/05/02 04:20:49;;;;;;;;;;;;;;;26.87;29.82;101830.06;4130843;28;20080;-69
2023/05/02 04:22:51;;;;;;;4.30;1.80;;;;;;;26.86;29.79;101833.75;4131593;28;19926;-69
2023/05/02 04:24:53;;;;;;;4.07;1.80;;;;;;;26.88;29.78;101842.53;4131465;28;20463;-69
2023/05/02 04:26:55;;;;;;;4.20;1.80;;;;;;;26.89;29.82;101845.13;4131329;28;20047;-69
2023/05/02 04:28:57;;;;;;;4.25;1.98;;;;;;;26.88;29.77;101846.13;4131620;28;20050;-69
2023/05/02 04:30:59;;;;;;;3.55;1.80;;;;;;;26.89;29.62;101853.22;4113451;28;20085;-69
2023/05/02 04:33:00;;;;;;;;;;;;;;;26.86;29.95;101858.03;4131792;28;20053;-70
2023/05/02 04:35:03;;;;;;;3.65;1.80;;;;;;;26.84;29.87;101863.56;4131220;28;19960;-69
2023/05/02 04:37:05;;;;;;;3.75;1.98;;;;;;;26.86;29.98;101861.59;4131188;28;20049;-69
2023/05/02 04:39:07;;;;;;;3.83;1.75;;;;;;;26.89;29.83;101863.16;4131321;28;20504;-69
2023/05/02 04:41:09;;;;;;;4.28;1.80;;;;;;;26.87;29.68;101868.69;4130394;28;20109;-69
2023/05/02 04:43:10;;;;;;;4.97;2.10;;;;;;;26.83;29.79;101861.00;4131298;28;20046;-69
2023/05/02 04:45:12;;;;;;;;;;;;;;;26.85;29.69;101865.28;4131710;28;20085;-69
2023/05/02 04:47:14;;;;;;;5.88;2.05;;;;;;;26.82;29.68;101876.34;4131084;28;19968;-69
2023/05/02 04:49:15;;;;;;;;;;;;;;;26.83;29.73;101877.19;4131438;28;20061;-69
2023/05/02 04:51:17;;;;;;;4.60;1.92;;;;;;;26.82;30.03;101887.16;4130222;28;19928;-69
2023/05/02 04:53:21;;;;;;;3.58;1.70;;;;;;;26.84;29.62;101878.91;4113938;28;20082;-69
2023/05/02 04:55:26;;;;;;;3.70;2.00;;;;;;;26.85;29.96;101883.31;4131149;28;20130;-69
2023/05/02 04:57:27;;;;;;;3.38;1.67;;;;;;;26.84;29.86;101879.75;4130920;28;20046;-68
2023/05/02 04:59:29;;;;;;;4.93;2.10;;;;;;;26.85;29.55;101889.56;4131189;28;20484;-69
2023/05/02 05:01:31;;;;;;;4.95;2.30;;;;;;;26.84;29.84;101881.59;4130096;28;20492;-69
2023/05/02 05:03:32;;;;;;;4.85;2.10;;;;;;;26.86;29.84;101893.97;4130879;28;20518;-69
2023/05/02 05:05:34;;;;;;;5.25;2.10;;;;;;;26.84;30.07;101882.44;4131180;28;20054;-69
2023/05/02 05:07:36;;;;;;;;;;;;;;;26.84;29.78;101887.84;4130904;28;20415;-69
2023/05/02 05:09:37;;;;;;;4.63;2.35;;;;;;;26.78;29.85;101891.94;4130797;28;19980;-69
2023/05/02 05:11:41;;;;;;;;;;;;;;;26.81;29.86;101889.97;4130446;28;20082;-70
2023/05/02 05:13:43;;;;;;;4.20;2.00;;;;;;;26.81;29.82;101893.53;4130766;28;19977;-69
2023/05/02 05:15:44;;;;;;;3.97;1.80;;;;;;;26.84;29.62;101893.25;4130832;28;20183;-69
2023/05/02 05:17:46;;;;;;;5.32;2.10;;;;;;;26.82;29.92;101891.66;4113349;28;20051;-69
2023/05/02 05:19:48;;;;;;;;;;;;;;;26.81;29.82;101901.63;4130056;28;20050;-68
2023/05/02 05:21:49;;;;;;;3.40;2.00;;;;;;;26.77;29.79;101902.88;4128401;28;19925;-69
2023/05/02 05:23:51;;;;;;;4.68;2.08;;;;;;;26.83;29.90;101910.44;4130819;28;20054;-68
2023/05/02 05:25:53;;;;;;;;;;;;;;;26.82;29.59;101921.34;4130909;28;20054;-69
2023/05/02 05:27:55;;;;;;;4.05;1.92;;;;;;;26.78;29.91;101916.25;4130918;28;19922;-68
2023/05/02 05:29:56;;;;;;;5.13;2.40;;;;;;;26.83;29.87;101921.25;4113434;28;20051;-70
2023/05/02 05:31:58;;;;;;;5.63;2.45;;;;;;;26.84;29.62;101914.84;4129823;28;20073;-69
2023/05/02 05:34:01;;;;;;;4.57;2.00;;;;;;;26.85;29.50;101923.81;4130481;28;20489;-70
2023/05/02 05:36:08;;;;;;;5.53;2.33;;;;;;;26.84;29.49;101925.63;4130749;28;20503;-70
2023/05/02 05:38:09;;;;;;;5.25;2.40;;;;;;;26.85;29.81;101927.34;4130557;28;20129;-69
2023/05/02 05:40:11;;;;;;;;;;;;;;;26.82;29.62;101927.63;4130255;28;20042;-69
2023/05/02 05:42:13;;;;;;;5.18;2.20;;;;;;;26.76;29.70;101925.47;4130404;28;19922;-69
2023/05/02 05:44:14;;;;;;;;;;;;;;;26.79;29.80;101930.56;4131162;28;20105;-69
2023/05/02 05:46:16;;;;;;;4.03;2.22;;;;;;;26.78;29.68;101939.66;4130710;28;19922;-70
2023/05/02 05:48:21;;;;;;;4.78;2.30;;;;;;;26.79;29.87;101933.28;4130423;28;20050;-70
2023/05/02 05:50:23;;;;;;;3.60;2.00;;;;;;;26.86;29.61;101944.41;4129215;28;20050;-69
2023/05/02 05:52:24;;;;;;;;;;;;;;;26.82;29.73;101946.53;4131017;28;20543;-69
2023/05/02 05:54:26;;;;;;;5.28;2.30;;;;;;;26.80;29.91;101940.41;4129544;28;19953;-69
2023/05/02 05:56:28;;;;;;;;;;;;;;;26.80;29.77;101942.25;4130944;28;20058;-69
2023/05/02 05:58:29;;;;;;;4.90;2.30;;;;;;;26.76;29.72;101947.91;4130706;28;19922;-69
2023/05/02 06:00:35;;;;;;;4.55;2.10;;;;;;;26.83;29.84;101955.47;4129774;28;20129;-69
2023/05/02 06:02:37;;;;;;;5.15;2.30;;;;;;;26.82;29.80;101957.31;4130232;28;20047;-69
2023/05/02 06:04:38;;;;;;;4.68;2.28;;;;;;;26.85;29.61;101961.59;4130715;28;20057;-69
2023/05/02 06:06:40;;;;;;;;;;;;;;;26.82;29.70;101951.94;4130720;28;20046;-69
2023/05/02 06:08:42;;;;;;;4.82;2.30;;;;;;;26.79;29.48;101960.28;4130384;28;19921;-69
2023/05/02 06:10:43;;;;;;;5.22;2.60;;;;;;;26.81;29.57;101962.84;4129532;28;20077;-69
2023/05/02 06:12:45;;;;;;;;;;;;;;;26.84;29.77;101968.81;4130682;28;20054;-69
2023/05/02 06:14:49;;;;;;;4.35;1.92;;;;;;;26.78;29.51;101964.81;4130448;28;19921;-68
2023/05/02 06:16:51;;;;;;;;;;;;;;;26.82;29.75;101970.81;4130438;28;20551;-69
2023/05/02 06:18:52;;;;;;;5.47;2.47;;;;;;;26.79;29.74;101968.38;4130239;28;19922;-68
2023/05/02 06:20:54;;;;;;;6.97;2.25;;;;;;;26.84;29.73;101973.38;4131682;28;20085;-69
2023/05/02 06:22:55;;;;;;;;;;;;;;;26.82;29.55;101973.53;4133613;28;20133;-69
2023/05/02 06:24:57;;;;;;;5.10;2.45;;;;;;;26.81;29.85;101977.19;4133423;28;20362;-68
2023/05/02 06:26:59;;;;;;;6.20;2.65;;;;;;;26.84;29.71;101976.91;4133401;28;20046;-68
2023/05/02 06:29:02;;;;;;;5.32;2.30;;;;;;;26.84;29.54;101979.63;4133278;28;20089;-70
2023/05/02 06:31:04;;;;;;;6.72;2.40;;;;;;;26.85;29.83;101980.50;4131955;28;20046;-69
2023/05/02 06:33:06;;;;;;;5.38;2.47;;;;;;;26.85;29.72;101980.50;4133296;28;20121;-69
2023/05/02 06:35:09;;;;;;;;;;;;;;;26.84;29.43;101986.88;4133579;28;20050;-69
2023/05/02 06:37:11;;;;;;;5.20;2.40;;;;;;;26.80;29.69;101988.13;4133135;28;19922;-69
2023/05/02 06:39:12;;;;;;;6.20;2.40;;;;;;;26.83;29.81;101991.44;4133086;28;20050;-72
2023/05/02 06:41:14;;;;;;;;;;;;;;;26.81;29.61;101996.09;4132395;28;20164;-69
2023/05/02 06:43:18;;;;;;;7.63;2.90;;;;;;;26.68;29.83;101998.94;4133069;28;19928;-70
2023/05/02 06:45:20;;;;;;;8.68;3.35;;;;;;;26.67;29.86;101997.22;4132866;28;20050;-70
2023/05/02 06:47:23;;;;;;;13.43;4.05;;;;;;;26.68;29.98;102004.31;4132996;28;20155;-69
2023/05/02 06:49:25;;;;;;;8.50;3.45;;;;;;;26.74;29.89;102000.25;4132956;28;20447;-69
2023/05/02 06:51:27;;;;;;;10.05;3.95;;;;;;;26.77;29.59;102005.44;4132209;28;20046;-66
2023/05/02 06:53:30;;;;;;;10.23;4.55;;;;;;;26.72;29.71;102008.50;4133221;28;20129;-67
2023/05/02 06:55:33;;;;;;;10.18;4.20;;;;;;;26.76;29.76;102003.72;4133033;28;20120;-68
2023/05/02 06:57:35;;;;;;;;;;;;;;;26.76;29.45;102003.72;4133171;28;20046;-68
2023/05/02 06:59:37;;;;;;;8.35;4.47;;;;;;;26.74;29.49;102000.25;4132795;28;19928;-67
2023/05/02 07:01:39;;;;;;;7.53;4.00;;;;;;;26.70;29.59;101991.56;4132066;28;20077;-69
2023/05/02 07:03:40;;;;;;;10.05;4.13;;;;;;;26.76;29.82;102004.56;4132923;28;20441;-67
2023/05/02 07:05:42;;;;;;;;;;;;;;;26.74;29.53;102008.34;4133366;28;20065;-67
2023/05/02 07:07:44;;;;;;;8.80;3.72;;;;;;;26.74;29.88;102008.34;4132787;28;19925;-67
2023/05/02 07:09:45;;;;;;;8.48;3.70;;;;;;;26.77;29.57;102000.06;4115528;28;20046;-67
2023/05/02 07:11:50;;;;;;;7.03;3.35;;;;;;;26.81;29.50;102011.44;4131842;28;20496;-67
2023/05/02 07:13:51;;;;;;;7.28;3.03;;;;;;;26.80;29.80;101999.78;4132594;28;20061;-67
2023/05/02 07:15:53;;;;;;;7.18;3.10;;;;;;;26.76;29.65;101996.47;4132483;28;20050;-68
2023/05/02 07:17:55;;;;;;;;;;;;;;;26.78;29.59;102007.13;4133030;28;20064;-67
2023/05/02 07:19:56;;;;;;;5.82;3.00;;;;;;;26.73;29.66;101999.41;4132767;28;19997;-68
2023/05/02 07:21:58;;;;;;;5.78;3.00;;;;;;;26.82;29.86;102007.72;4131393;28;20071;-67
2023/05/02 07:24:00;;;;;;;;;;;;;;;26.79;29.54;102006.16;4132823;28;20125;-68
2023/05/02 07:26:02;;;;;;;9.02;3.40;;;;;;;26.80;29.59;102002.47;4131360;28;19982;-68
2023/05/02 07:28:07;;;;;;;6.60;3.05;;;;;;;26.84;29.48;102003.06;4132403;28;20108;-67
2023/05/02 07:30:09;;;;;;;4.47;2.60;;;;;;;26.88;29.54;102004.50;4132201;28;20504;-68
2023/05/02 07:32:10;;;;;;;7.88;2.80;;;;;;;26.89;29.58;102003.53;4130966;28;20050;-67
2023/05/02 07:34:12;;;;;;;7.10;2.85;;;;;;;26.89;29.41;102000.81;4132105;28;20113;-67
2023/05/02 07:36:14;;;;;;;;;;;;;;;26.91;29.35;102001.56;4132802;28;20054;-67
2023/05/02 07:38:16;;;;;;;6.22;3.08;;;;;;;26.91;29.78;102009.66;4132368;28;19922;-67
2023/05/02 07:40:17;;;;;;;6.72;2.85;;;;;;;26.96;29.58;102014.69;4132349;28;20053;-67
2023/05/02 07:42:19;;;;;;;;;;;;;;;26.96;29.40;102011.97;4131438;28;20050;-68
2023/05/02 07:44:20;;;;;;;6.00;2.88;;;;;;;26.92;29.47;102016.78;4132026;28;19928;-67
2023/05/02 07:46:23;;;;;;;5.03;2.70;;;;;;;26.96;29.45;102026.31;4132243;28;20052;-67
2023/05/02 07:48:24;;;;;;;6.40;2.58;;;;;;;26.96;29.54;102020.06;4132227;28;20116;-67
2023/05/02 07:50:28;;;;;;;7.10;3.15;;;;;;;26.98;29.59;102018.94;4131805;28;20046;-68
2023/05/02 07:52:30;;;;;;;7.13;2.78;;;;;;;27.00;29.44;102026.91;4131404;28;20054;-67
2023/05/02 07:54:32;;;;;;;6.13;3.05;;;;;;;27.00;29.27;102025.09;4132109;28;20085;-68
2023/05/02 07:56:34;;;;;;;6.60;2.70;;;;;;;27.01;29.22;102032.19;4114870;28;20095;-67
2023/05/02 07:58:36;;;;;;;7.00;2.92;;;;;;;27.02;29.03;102035.75;4131557;28;20056;-67
2023/05/02 08:00:37;;;;;;;;;;;;;;;26.98;29.39;102037.00;4131733;28;20065;-68
2023/05/02 08:02:43;;;;;;;7.70;3.30;;;;;;;26.96;29.42;102033.56;4131625;28;20422;-67
2023/05/02 08:04:46;;;;;;;6.60;3.10;;;;;;;26.98;29.32;102037.00;4114640;28;20049;-67
2023/05/02 08:06:48;;;;;;;5.60;2.72;;;;;;;26.98;29.22;102039.72;4131572;28;20054;-67
2023/05/02 08:08:50;;;;;;;6.38;3.03;;;;;;;26.98;29.32;102045.94;4131735;28;20435;-68
2023/05/02 08:10:52;;;;;;;7.15;2.80;;;;;;;26.98;29.35;102055.91;4131070;28;20138;-68
2023/05/02 08:12:53;;;;;;;7.13;3.05;;;;;;;26.93;29.23;102042.78;4131324;28;20496;-68
2023/05/02 08:14:55;;;;;;;;;;;;;;;26.93;29.55;102059.84;4132156;28;20069;-67
2023/05/02 08:16:57;;;;;;;6.53;2.53;;;;;;;26.95;29.64;102059.69;4131765;28;19984;-67
2023/05/02 08:18:59;;;;;;;8.38;2.92;;;;;;;26.98;29.16;102055.91;4131787;28;20050;-68
2023/05/02 08:21:01;;;;;;;7.45;2.63;;;;;;;26.99;29.29;102052.19;4130619;28;20053;-68
2023/05/02 08:23:04;;;;;;;8.45;2.70;;;;;;;26.96;29.65;102053.31;4131361;28;20058;-68
2023/05/02 08:25:07;;;;;;;7.20;3.00;;;;;;;27.00;29.38;102062.88;4114199;28;20085;-67
2023/05/02 08:27:08;;;;;;;7.68;2.88;;;;;;;27.00;29.23;102052.09;4131161;28;20150;-67
2023/05/02 08:29:10;;;;;;;6.85;2.47;;;;;;;27.01;29.22;102050.22;4131465;28;20085;-68
2023/05/02 08:31:12;;;;;;;7.78;2.78;;;;;;;26.98;29.35;102062.16;4130791;28;20042;-68
2023/05/02 08:33:14;;;;;;;;;;;;;;;26.98;29.36;102061.31;4131794;28;20054;-67
2023/05/02 08:35:15;;;;;;;;;;;;;;;26.93;29.37;102059.84;4132006;28;19922;-67
2023/05/02 08:37:17;;;;;;;5.78;2.42;;;;;;;26.93;29.66;102065.22;4113854;28;20382;-67
2023/05/02 08:39:18;;;;;;;;;;;;;;;26.96;29.51;102065.97;4131798;28;20535;-67
2023/05/02 08:41:21;;;;;;;7.28;2.35;;;;;;;26.91;29.37;102066.34;4130016;28;20367;-67
2023/05/02 08:43:22;;;;;;;6.03;2.30;;;;;;;26.99;29.46;102079.19;4130715;28;20058;-67
2023/05/02 08:45:24;;;;;;;;;;;;;;;26.94;29.51;102077.75;4131768;28;20057;-67
2023/05/02 08:47:26;;;;;;;6.30;2.60;;;;;;;26.88;29.60;102078.28;4131108;28;19922;-67
2023/05/02 08:49:30;;;;;;;6.88;2.60;;;;;;;26.94;29.41;102091.25;4131361;28;20125;-68
2023/05/02 08:51:33;;;;;;;9.10;2.38;;;;;;;26.93;29.28;102089.53;4112981;28;20118;-68
2023/05/02 08:53:37;;;;;;;7.68;2.50;;;;;;;26.98;29.58;102088.31;4131247;28;20402;-68
2023/05/02 08:55:40;;;;;;;6.68;2.22;;;;;;;26.98;29.65;102096.41;4130742;28;20149;-68
2023/05/02 08:57:42;;;;;;;5.68;2.30;;;;;;;26.96;29.56;102103.75;4131008;28;20061;-67
2023/05/02 08:59:44;;;;;;;6.78;2.20;;;;;;;26.97;29.29;102102.78;4131074;28;20115;-68
2023/05/02 09:01:51;;;;;;;4.88;2.42;;;;;;;26.95;29.27;102108.28;4129905;28;20097;-67
2023/05/02 09:03:54;;;;;;;5.45;2.20;;;;;;;26.92;29.48;102092.38;4131034;28;20055;-68
2023/05/02 09:06:20;;;;;;;8.20;2.47;;;;;;;26.94;29.40;102102.06;4131005;28;20042;-67
2023/05/02 09:08:25;;;;;;;4.60;2.10;;;;;;;26.90;29.58;102105.13;4131116;28;20508;-68
2023/05/02 09:10:28;;;;;;;4.45;1.90;;;;;;;26.89;29.59;102112.38;4130561;28;20522;-68
2023/05/02 09:12:29;;;;;;;6.40;2.35;;;;;;;26.88;29.60;102099.00;4130104;28;20046;-68
2023/05/02 09:14:31;;;;;;;3.95;1.90;;;;;;;26.87;29.59;102106.25;4130806;28;20077;-68
2023/05/02 09:16:38;;;;;;;5.53;2.20;;;;;;;26.88;29.27;102107.97;4131128;28;20073;-67
2023/05/02 09:18:41;;;;;;;4.60;2.20;;;;;;;26.90;29.60;102105.13;4113561;28;20501;-68
2023/05/02 09:20:43;;;;;;;5.00;2.35;;;;;;;26.90;29.46;102119.50;4131007;28;20050;-67
2023/05/02 09:22:49;;;;;;;;;;;;;;;26.87;29.48;102119.75;4112600;28;20562;-68
2023/05/02 09:24:54;;;;;;;6.18;2.83;;;;;;;26.85;29.56;102126.25;4130566;28;19965;-67
2023/05/02 09:26:57;;;;;;;6.15;2.88;;;;;;;26.87;29.53;102125.13;4098540;29;20394;-68
2023/05/02 09:29:03;;;;;;;5.07;2.90;;;;;;;26.87;29.66;102129.69;4098950;29;20497;-68
2023/05/02 09:31:10;;;;;;;8.75;3.35;;;;;;;26.88;29.63;102134.97;4097996;29;20051;-66
2023/05/02 09:33:25;;;;;;;8.13;2.92;;;;;;;26.87;29.45;102138.63;4098700;29;20542;-67
2023/05/02 09:35:26;;;;;;;5.10;2.97;;;;;;;26.85;29.65;102132.50;4098721;29;20051;-68
2023/05/02 09:37:35;;;;;;;6.05;3.17;;;;;;;26.88;29.38;102124.16;4098513;29;20130;-67
2023/05/02 09:39:36;;;;;;;5.65;3.22;;;;;;;26.87;29.42;102127.00;4081346;29;20533;-67
2023/05/02 09:41:39;;;;;;;;;;;;;;;26.86;29.42;102128.81;4098080;29;20127;-68
2023/05/02 09:43:41;;;;;;;5.85;3.00;;;;;;;26.88;29.55;102131.38;4098527;29;19948;-68
2023/05/02 09:45:55;;;;;;;7.95;3.42;;;;;;;26.93;29.33;102124.63;4098758;29;20051;-67